Archival Weather

Pocono Mountains Rgnl

Mount Pocono, Pennsylvania (KMPO)

Report from: Tuesday, May 21, 2024 1:53 AM EDT
Current time: Thursday, July 18, 2024 11:47 PM EDT

Current weather – Weather history – Daily summaries
Weather forecast

Temperature15.0°C (59.0°F)
Dew point13.3°C (55.9°F)
Winds 6 kts (3.1 m/s, 6.9 mph) West (280°)
Visibility10 mi. (16.1 km)
Clouds Sky clear
Altimeter30.01 in.Hg (1016 mB)
Relative humidity90 %
Density altitude140 ft. (43 m)
Sea-level pressure101.5 kPa (1015 mB, 29.98 in.Hg)
Max temp last 6 hours20.6°C (69.1°F)
Min temp last 6 hours14.4°C (57.9°F)
Remarks Fully automated report
Automated weather observing station with precipitation discriminator
Pressure falling more quickly
Flight conditions Visual Meteorological Conditions
Raw dataKMPO 210553Z AUTO 28006KT 10SM CLR 15/13 A3001 RMK AO2 SLP154 T01500133 10206 20144 58007
An error has occurred. This application may no longer respond until reloaded. Reload 🗙